Time;durP1;ratioP1;P1;durP2;ratioP2;P2;SDS_P1;SDS_P2;PMS_P1;PMS_P2;Temp;Humidity;BMP_temperature;BMP_pressure;BME280_temperature;BME280_humidity;BME280_pressure;Samples;Min_cycle;Max_cycle;Signal;HPM_P1;HPM_P2
2023/03/13 00:01:57;;;;;;;18.50;6.35;;;9.20;99.90;;;;;;5155688;27;20549;-79
2023/03/13 00:04:23;;;;;;;17.08;5.95;;;9.20;99.90;;;;;;5136881;27;20050;-80
2023/03/13 00:06:49;;;;;;;21.60;6.20;;;9.10;99.90;;;;;;5155384;27;20042;-78
2023/03/13 00:09:15;;;;;;;14.43;6.13;;;9.10;99.90;;;;;;5155626;27;20043;-79
2023/03/13 00:11:42;;;;;;;18.52;7.20;;;9.10;99.90;;;;;;5155092;27;20072;-78
2023/03/13 00:14:08;;;;;;;17.90;6.20;;;9.10;99.90;;;;;;5155512;27;20042;-80
2023/03/13 00:16:36;;;;;;;23.73;7.25;;;9.10;99.90;;;;;;5155097;27;20041;-79
2023/03/13 00:19:03;;;;;;;22.25;7.60;;;9.00;99.90;;;;;;5136495;27;20086;-80
2023/03/13 00:21:29;;;;;;;20.63;6.28;;;9.00;99.90;;;;;;5155026;27;20069;-80
2023/03/13 00:23:57;;;;;;;24.33;7.25;;;9.00;99.90;;;;;;5155258;27;20042;-80
2023/03/13 00:26:25;;;;;;;21.98;7.68;;;9.00;99.90;;;;;;5155042;27;20054;-81
2023/03/13 00:28:51;;;;;;;16.17;6.57;;;9.00;99.90;;;;;;5155431;27;20042;-80
2023/03/13 00:31:26;;;;;;;21.35;7.97;;;8.90;99.90;;;;;;5154950;27;20130;-81
2023/03/13 00:33:53;;;;;;;20.73;7.07;;;8.90;99.90;;;;;;5154755;27;20080;-80
2023/03/13 00:36:25;;;;;;;22.70;7.40;;;8.90;99.90;;;;;;5154726;27;20479;-80
2023/03/13 00:38:52;;;;;;;17.17;6.65;;;8.90;99.90;;;;;;5136121;27;20051;-79
2023/03/13 00:41:23;;;;;;;19.95;8.18;;;8.90;99.90;;;;;;5154570;27;20479;-79
2023/03/13 00:43:50;;;;;;;18.95;6.32;;;8.90;99.90;;;;;;5155001;27;20051;-80
2023/03/13 00:46:19;;;;;;;23.27;6.80;;;8.80;99.90;;;;;;5154518;27;20046;-79
2023/03/13 00:48:46;;;;;;;20.17;7.47;;;8.80;99.90;;;;;;5154324;27;20078;-80
2023/03/13 00:51:13;;;;;;;21.77;7.03;;;8.80;99.90;;;;;;5136470;27;20120;-78
2023/03/13 00:53:38;;;;;;;20.25;6.78;;;8.80;99.90;;;;;;5154352;27;20046;-80
2023/03/13 00:56:08;;;;;;;24.30;7.82;;;8.80;99.90;;;;;;5154276;27;20063;-81
2023/03/13 00:58:39;;;;;;;29.75;8.38;;;8.80;99.90;;;;;;5154317;27;20058;-79
2023/03/13 01:01:12;;;;;;;19.52;7.68;;;8.80;99.90;;;;;;5135880;27;20047;-80
2023/03/13 01:03:39;;;;;;;19.25;7.50;;;8.80;99.90;;;;;;5135850;27;20162;-80
2023/03/13 01:06:08;;;;;;;20.63;7.22;;;8.80;99.90;;;;;;5135963;27;20474;-80
2023/03/13 01:08:34;;;;;;;12.80;7.55;;;8.80;99.90;;;;;;5136341;27;20070;-80
2023/03/13 01:11:05;;;;;;;18.13;6.55;;;8.80;99.90;;;;;;5154649;27;20089;-79
2023/03/13 01:13:32;;;;;;;21.80;6.82;;;8.80;99.90;;;;;;5153810;27;20046;-80
2023/03/13 01:16:03;;;;;;;19.35;6.78;;;8.80;99.90;;;;;;5135929;27;20082;-79
2023/03/13 01:18:28;;;;;;;14.43;7.25;;;8.80;99.90;;;;;;5154030;27;20054;-79
2023/03/13 01:20:54;;;;;;;23.73;7.65;;;8.80;99.90;;;;;;5136517;27;20045;-79
2023/03/13 01:23:20;;;;;;;34.45;7.50;;;8.80;99.90;;;;;;5136743;27;20046;-81
2023/03/13 01:25:45;;;;;;;18.20;7.22;;;8.80;99.90;;;;;;5158467;27;20082;-78
2023/03/13 01:28:11;;;;;;;20.67;6.82;;;8.80;99.90;;;;;;5139885;27;20458;-78
2023/03/13 01:30:37;;;;;;;19.05;7.10;;;8.80;99.90;;;;;;5158310;27;20042;-79
2023/03/13 01:33:02;;;;;;;16.75;6.22;;;8.80;99.90;;;;;;5158310;27;20465;-76
2023/03/13 01:35:28;;;;;;;18.70;6.13;;;8.80;99.90;;;;;;5158145;27;20047;-80
2023/03/13 01:37:54;;;;;;;20.60;7.63;;;8.80;99.90;;;;;;5158143;27;20046;-80
2023/03/13 01:40:19;;;;;;;18.88;6.25;;;8.80;99.90;;;;;;5139550;27;20125;-78
2023/03/13 01:42:57;;;;;;;17.02;6.18;;;8.80;99.90;;;;;;5158068;27;20038;-80
2023/03/13 01:46:05;;;;;;;25.70;7.63;;;8.80;99.90;;;;;;5158228;27;20046;-79
2023/03/13 01:48:46;;;;;;;16.40;7.68;;;8.80;99.90;;;;;;5146855;27;20502;-79
2023/03/13 01:51:46;;;;;;;11.82;5.80;;;8.80;99.90;;;;;;5158490;27;20053;-79
2023/03/13 01:54:28;;;;;;;21.77;7.88;;;8.80;99.90;;;;;;5143326;27;20047;-76
2023/03/13 01:57:11;;;;;;;14.27;6.53;;;8.90;99.90;;;;;;5159190;27;20047;-82
2023/03/13 01:59:41;;;;;;;;;;;8.90;99.90;;;;;;5159257;27;20050;-80
2023/03/13 02:02:07;;;;;;;19.70;6.45;;;8.90;99.90;;;;;;5157798;27;19995;-79
2023/03/13 02:04:41;;;;;;;26.17;7.90;;;8.90;99.90;;;;;;5157715;27;20057;-79
2023/03/13 02:07:12;;;;;;;18.65;6.47;;;8.90;99.90;;;;;;5157850;27;20046;-79
2023/03/13 02:09:40;;;;;;;16.98;6.22;;;8.90;99.90;;;;;;5157919;27;20035;-79
2023/03/13 02:12:13;;;;;;;13.82;6.07;;;8.90;99.90;;;;;;5162047;27;20047;-78
2023/03/13 02:14:42;;;;;;;12.48;7.38;;;8.90;99.90;;;;;;5162000;27;20043;-79
2023/03/13 02:17:08;;;;;;;20.90;7.22;;;9.00;99.90;;;;;;5161794;27;20057;-79
2023/03/13 02:19:40;;;;;;;18.92;6.47;;;9.00;99.90;;;;;;5160950;27;20047;-79
2023/03/13 02:22:34;;;;;;;19.23;6.55;;;9.00;99.90;;;;;;5158249;27;20085;-79
2023/03/13 02:25:11;;;;;;;19.17;7.00;;;9.00;99.90;;;;;;5157794;27;20061;-80
2023/03/13 02:27:37;;;;;;;14.43;6.43;;;9.00;99.90;;;;;;5157615;27;20101;-78
2023/03/13 02:30:04;;;;;;;17.35;6.78;;;9.00;99.90;;;;;;5157629;27;20047;-80
2023/03/13 02:32:31;;;;;;;18.75;6.63;;;9.00;99.90;;;;;;5157521;27;20046;-80
2023/03/13 02:35:03;;;;;;;12.00;5.90;;;9.00;99.90;;;;;;5157062;27;20072;-81
2023/03/13 02:37:29;;;;;;;12.00;6.30;;;8.90;99.90;;;;;;5157327;27;20043;-80
2023/03/13 02:39:57;;;;;;;20.63;7.47;;;9.00;99.90;;;;;;5157152;27;20074;-81
2023/03/13 02:42:26;;;;;;;16.58;6.85;;;8.90;99.90;;;;;;5138668;27;20073;-80
2023/03/13 02:44:52;;;;;;;12.13;5.95;;;8.90;99.90;;;;;;5156937;27;20546;-78
2023/03/13 02:47:21;;;;;;;17.95;6.50;;;8.90;99.90;;;;;;5157454;27;20123;-80
2023/03/13 02:49:47;;;;;;;18.17;6.15;;;9.00;99.90;;;;;;5139771;27;20119;-79
2023/03/13 02:52:29;;;;;;;9.15;4.35;;;9.00;99.90;;;;;;5157488;27;20042;-80
2023/03/13 02:55:00;;;;;;;10.63;5.07;;;9.00;99.90;;;;;;5157296;27;20084;-79
2023/03/13 02:57:26;;;;;;;11.38;5.18;;;9.00;99.90;;;;;;5157123;27;20055;-78
2023/03/13 02:59:52;;;;;;;8.90;4.25;;;9.00;99.90;;;;;;5156720;27;20436;-76
2023/03/13 03:02:18;;;;;;;8.00;4.43;;;9.00;99.90;;;;;;5157020;27;20064;-79
2023/03/13 03:04:43;;;;;;;7.07;3.95;;;9.00;99.90;;;;;;5156510;27;20054;-79
2023/03/13 03:07:09;;;;;;;6.80;3.67;;;9.10;99.90;;;;;;5156934;27;20103;-78
2023/03/13 03:09:35;;;;;;;7.80;4.65;;;9.10;99.90;;;;;;5156537;27;20043;-79
2023/03/13 03:12:01;;;;;;;6.90;3.72;;;9.20;99.90;;;;;;5156484;27;20070;-79
2023/03/13 03:14:26;;;;;;;7.72;3.60;;;9.20;99.90;;;;;;5156403;27;20049;-78
2023/03/13 03:16:52;;;;;;;7.82;3.80;;;9.10;99.90;;;;;;5137800;27;20047;-79
2023/03/13 03:19:17;;;;;;;6.22;4.13;;;9.20;99.90;;;;;;5137911;27;20069;-79
2023/03/13 03:21:43;;;;;;;6.00;3.15;;;9.20;99.90;;;;;;5156154;27;20091;-79
2023/03/13 03:24:09;;;;;;;7.25;3.45;;;9.20;99.90;;;;;;5155992;27;20096;-79
2023/03/13 03:26:35;;;;;;;5.50;2.83;;;9.20;99.90;;;;;;5156285;27;20046;-80
2023/03/13 03:29:01;;;;;;;4.65;3.33;;;9.60;99.90;;;;;;5156122;27;20046;-78
2023/03/13 03:31:26;;;;;;;7.53;2.67;;;9.20;99.90;;;;;;5156065;27;20470;-78
2023/03/13 03:33:52;;;;;;;7.22;3.65;;;9.20;99.90;;;;;;5156233;27;20483;-80
2023/03/13 03:36:20;;;;;;;7.03;2.85;;;9.20;99.90;;;;;;5156467;27;20049;-80
2023/03/13 03:38:47;;;;;;;5.93;2.65;;;9.30;99.90;;;;;;5156436;27;20038;-80
2023/03/13 03:41:13;;;;;;;7.47;3.17;;;9.30;99.90;;;;;;5156252;27;20098;-83
2023/03/13 03:43:40;;;;;;;3.65;3.05;;;9.30;99.90;;;;;;5138267;27;20047;-81
2023/03/13 03:46:06;;;;;;;10.63;3.03;;;9.50;99.90;;;;;;5154973;27;20050;-79
2023/03/13 03:48:31;;;;;;;6.38;3.10;;;9.50;99.90;;;;;;5155834;27;20054;-76
2023/03/13 03:50:57;;;;;;;4.80;3.17;;;9.40;99.90;;;;;;5155646;27;20118;-77
2023/03/13 03:53:24;;;;;;;3.10;2.63;;;9.40;99.90;;;;;;5155824;27;20138;-78
2023/03/13 03:55:49;;;;;;;3.22;2.35;;;9.40;99.90;;;;;;5155554;27;20089;-79
2023/03/13 03:58:15;;;;;;;4.03;2.63;;;9.50;99.90;;;;;;5155506;27;20050;-78
2023/03/13 04:00:43;;;;;;;3.17;2.55;;;9.50;99.90;;;;;;5155109;27;20043;-77
2023/03/13 04:03:09;;;;;;;4.97;3.05;;;9.50;99.90;;;;;;5155891;27;20039;-78
2023/03/13 04:05:35;;;;;;;3.20;2.72;;;9.60;99.90;;;;;;5155279;27;20095;-79
2023/03/13 04:08:01;;;;;;;3.58;2.55;;;9.60;99.90;;;;;;5137693;27;20047;-79
2023/03/13 04:10:26;;;;;;;4.30;2.88;;;9.60;99.90;;;;;;5155146;27;20050;-79
2023/03/13 04:12:52;;;;;;;5.30;3.22;;;9.60;99.90;;;;;;5155288;27;20478;-79
2023/03/13 04:15:18;;;;;;;3.83;2.75;;;9.60;99.90;;;;;;5154667;27;20101;-78
2023/03/13 04:17:43;;;;;;;5.25;2.63;;;9.70;99.90;;;;;;5155088;27;20098;-79
2023/03/13 04:20:12;;;;;;;4.18;2.65;;;9.70;99.90;;;;;;5154737;27;20045;-78
2023/03/13 04:22:39;;;;;;;3.75;2.63;;;9.80;99.90;;;;;;5155038;27;20039;-77
2023/03/13 04:25:05;;;;;;;5.88;2.80;;;9.80;99.90;;;;;;5155076;27;20072;-80
2023/03/13 04:27:32;;;;;;;4.63;3.42;;;9.80;99.90;;;;;;5154982;27;20035;-80
2023/03/13 04:29:58;;;;;;;5.97;3.08;;;9.90;99.90;;;;;;5154818;27;20046;-80
2023/03/13 04:32:24;;;;;;;3.92;2.85;;;9.90;99.90;;;;;;5155280;27;20095;-80
2023/03/13 04:34:49;;;;;;;4.40;2.95;;;10.00;99.90;;;;;;5155412;27;20072;-80
2023/03/13 04:37:15;;;;;;;5.55;3.03;;;10.10;99.90;;;;;;5155177;27;20375;-81
2023/03/13 04:39:41;;;;;;;3.78;2.90;;;10.10;99.90;;;;;;5154768;27;20107;-81
2023/03/13 04:42:08;;;;;;;3.40;3.00;;;10.20;99.90;;;;;;5154596;27;20540;-79
2023/03/13 04:44:34;;;;;;;3.72;3.38;;;10.30;99.90;;;;;;5154574;27;20046;-79
2023/03/13 04:47:00;;;;;;;4.30;3.25;;;10.30;99.90;;;;;;5155127;27;20046;-78
2023/03/13 04:49:25;;;;;;;3.65;3.13;;;10.30;99.90;;;;;;5154509;27;20481;-80
2023/03/13 04:51:51;;;;;;;4.80;3.65;;;10.40;99.90;;;;;;5154702;27;20573;-80
2023/03/13 04:54:17;;;;;;;4.22;3.75;;;10.50;99.90;;;;;;5155086;27;20476;-80
2023/03/13 04:56:42;;;;;;;6.60;4.07;;;10.50;99.90;;;;;;5154401;27;20038;-79
2023/03/13 04:59:12;;;;;;;5.00;4.30;;;10.60;99.90;;;;;;5155091;27;20137;-80
2023/03/13 05:01:39;;;;;;;6.40;5.03;;;10.60;99.90;;;;;;5119128;27;20107;-80
2023/03/13 05:04:05;;;;;;;5.93;4.47;;;10.60;99.90;;;;;;5154236;27;20129;-80
2023/03/13 05:06:30;;;;;;;4.78;4.05;;;10.60;99.90;;;;;;5154526;27;20081;-79
2023/03/13 05:08:56;;;;;;;6.35;4.78;;;10.70;99.90;;;;;;5154605;27;20096;-79
2023/03/13 05:11:22;;;;;;;6.20;4.30;;;10.70;99.90;;;;;;5154411;27;20091;-79
2023/03/13 05:13:48;;;;;;;5.45;3.75;;;10.70;99.90;;;;;;5136090;27;20046;-79
2023/03/13 05:16:14;;;;;;;4.38;3.67;;;10.80;99.90;;;;;;5153961;27;20046;-79
2023/03/13 05:18:39;;;;;;;6.43;4.75;;;10.80;99.90;;;;;;5154988;27;20054;-79
2023/03/13 05:21:06;;;;;;;8.45;4.43;;;10.80;99.90;;;;;;5155748;27;20049;-78
2023/03/13 05:23:32;;;;;;;6.15;4.93;;;10.90;99.90;;;;;;5156260;27;20168;-79
2023/03/13 05:25:58;;;;;;;7.13;4.53;;;10.90;99.90;;;;;;5157851;27;20078;-76
2023/03/13 05:28:23;;;;;;;5.95;5.15;;;10.80;99.90;;;;;;5157214;27;20141;-79
2023/03/13 05:30:49;;;;;;;8.27;5.35;;;11.10;99.90;;;;;;5154689;27;20074;-79
2023/03/13 05:33:15;;;;;;;7.05;6.18;;;11.10;99.90;;;;;;5154236;27;20118;-80
2023/03/13 05:35:41;;;;;;;6.28;5.25;;;11.10;99.90;;;;;;5154642;27;20043;-78
2023/03/13 05:38:07;;;;;;;9.77;6.18;;;11.10;99.90;;;;;;5136022;27;20038;-78
2023/03/13 05:40:33;;;;;;;7.38;5.38;;;11.20;99.90;;;;;;5154296;27;20093;-78
2023/03/13 05:42:59;;;;;;;7.68;4.40;;;11.30;99.90;;;;;;5136374;27;20047;-78
2023/03/13 05:45:24;;;;;;;9.10;5.88;;;11.30;99.90;;;;;;5135895;27;20402;-78
2023/03/13 05:47:50;;;;;;;6.63;4.55;;;11.30;99.90;;;;;;5154294;27;20039;-78
2023/03/13 05:50:16;;;;;;;5.72;5.00;;;11.40;99.90;;;;;;5153938;27;20493;-76
2023/03/13 05:52:42;;;;;;;5.40;3.95;;;11.40;99.90;;;;;;5154765;27;20034;-78
2023/03/13 05:55:08;;;;;;;6.70;4.32;;;11.50;99.90;;;;;;5154045;27;20358;-79
2023/03/13 05:57:34;;;;;;;4.93;4.25;;;11.50;99.90;;;;;;5153348;27;20400;-78
2023/03/13 06:00:00;;;;;;;5.38;4.00;;;11.60;99.90;;;;;;5154398;27;20055;-78
2023/03/13 06:02:26;;;;;;;5.55;3.88;;;11.60;99.90;;;;;;5153761;27;20045;-78
2023/03/13 06:04:51;;;;;;;5.43;3.40;;;11.60;99.90;;;;;;5153951;27;20046;-77
2023/03/13 06:07:17;;;;;;;8.38;3.30;;;11.60;99.90;;;;;;5153887;27;20042;-79
2023/03/13 06:09:43;;;;;;;9.70;5.35;;;11.60;99.90;;;;;;5137693;27;20076;-78
2023/03/13 06:12:10;;;;;;;6.25;3.47;;;11.60;99.90;;;;;;5157377;27;20045;-77
2023/03/13 06:14:36;;;;;;;4.70;3.80;;;11.60;99.90;;;;;;5158059;27;20050;-77
2023/03/13 06:17:05;;;;;;;4.53;3.30;;;11.60;99.90;;;;;;5139031;27;20043;-77
2023/03/13 06:19:31;;;;;;;4.63;4.05;;;11.70;99.90;;;;;;5157503;27;20103;-77
2023/03/13 06:21:57;;;;;;;6.20;4.15;;;11.70;99.90;;;;;;5157796;27;20460;-78
2023/03/13 06:24:23;;;;;;;6.95;4.65;;;11.70;99.90;;;;;;5138685;27;20047;-78
2023/03/13 06:26:50;;;;;;;7.93;3.47;;;11.70;99.90;;;;;;5157584;27;20080;-79
2023/03/13 06:29:16;;;;;;;6.88;4.80;;;11.70;99.90;;;;;;5139398;27;20148;-79
2023/03/13 06:31:42;;;;;;;6.80;3.38;;;11.70;99.90;;;;;;5157297;27;20125;-77
2023/03/13 06:34:11;;;;;;;6.38;3.92;;;11.70;99.90;;;;;;5156640;27;20078;-78
2023/03/13 06:36:37;;;;;;;8.07;4.43;;;11.70;99.90;;;;;;5157770;27;20038;-77
2023/03/13 06:39:03;;;;;;;5.75;4.00;;;11.70;99.90;;;;;;5157457;27;20055;-78
2023/03/13 06:41:28;;;;;;;7.60;4.15;;;11.80;99.90;;;;;;5156669;27;20061;-80
2023/03/13 06:43:54;;;;;;;7.38;3.83;;;11.80;99.90;;;;;;5157197;27;20455;-79
2023/03/13 06:46:22;;;;;;;6.70;4.55;;;11.80;99.90;;;;;;5157038;27;20081;-79
2023/03/13 06:48:49;;;;;;;6.15;3.83;;;11.80;99.90;;;;;;5156590;27;20051;-79
2023/03/13 06:51:17;;;;;;;5.68;3.67;;;11.80;99.90;;;;;;5156747;27;20473;-79
2023/03/13 06:53:43;;;;;;;9.40;4.35;;;11.90;99.90;;;;;;5156398;27;20133;-79
2023/03/13 06:56:10;;;;;;;5.68;3.47;;;11.90;99.90;;;;;;5138615;27;20146;-79
2023/03/13 06:58:35;;;;;;;7.47;4.22;;;11.90;99.90;;;;;;5156897;27;20066;-77
2023/03/13 07:01:12;;;;;;;11.18;4.90;;;11.90;99.90;;;;;;5138584;27;20124;-78
2023/03/13 07:03:40;;;;;;;13.27;4.70;;;11.90;99.90;;;;;;5156561;27;20123;-80
2023/03/13 07:06:07;;;;;;;8.05;6.10;;;11.90;99.90;;;;;;5156329;27;20107;-79
2023/03/13 07:08:33;;;;;;;9.20;4.80;;;11.90;99.90;;;;;;5156262;27;20043;-80
2023/03/13 07:11:01;;;;;;;7.82;5.82;;;11.90;99.90;;;;;;5156282;27;20043;-81
2023/03/13 07:13:28;;;;;;;11.00;5.22;;;11.90;99.90;;;;;;5156608;27;20035;-79
2023/03/13 07:15:54;;;;;;;12.88;5.38;;;11.90;99.90;;;;;;5120833;27;20084;-80
2023/03/13 07:18:21;;;;;;;8.35;5.57;;;11.90;99.90;;;;;;5156683;27;20064;-78
2023/03/13 07:20:58;;;;;;;10.98;5.07;;;11.90;99.90;;;;;;5155020;27;20050;-80
2023/03/13 07:23:25;;;;;;;10.43;4.72;;;11.90;99.90;;;;;;5155865;27;20050;-80
2023/03/13 07:25:59;;;;;;;10.52;5.80;;;12.00;99.90;;;;;;5155724;27;20046;-79
2023/03/13 07:28:25;;;;;;;25.23;6.00;;;11.90;99.90;;;;;;5155997;27;20479;-79
2023/03/13 07:30:51;;;;;;;9.07;4.43;;;11.90;99.90;;;;;;5156005;27;20141;-79
2023/03/13 07:33:18;;;;;;;10.25;4.28;;;12.00;99.90;;;;;;5156361;27;20168;-80
2023/03/13 07:35:48;;;;;;;6.32;4.63;;;11.90;99.90;;;;;;5156598;27;20051;-80
2023/03/13 07:38:13;;;;;;;9.38;4.40;;;12.00;99.90;;;;;;5137891;27;20129;-81
2023/03/13 07:40:46;;;;;;;4.90;3.53;;;12.00;99.90;;;;;;5156515;27;20039;-80
2023/03/13 07:43:11;;;;;;;6.90;4.25;;;12.00;99.90;;;;;;5155985;27;20471;-79
2023/03/13 07:45:37;;;;;;;9.57;3.85;;;12.00;99.90;;;;;;5155397;27;20088;-80
2023/03/13 07:48:03;;;;;;;6.25;5.18;;;12.00;99.90;;;;;;5155678;27;20096;-82
2023/03/13 07:50:29;;;;;;;4.60;3.75;;;12.00;99.90;;;;;;5155189;27;20115;-78
2023/03/13 07:52:55;;;;;;;6.75;3.72;;;12.00;99.90;;;;;;5137475;27;20473;-80
2023/03/13 07:55:21;;;;;;;8.75;4.32;;;12.00;99.90;;;;;;5155396;27;20073;-80
2023/03/13 07:57:46;;;;;;;5.70;3.50;;;12.00;99.90;;;;;;5154777;27;20046;-80
2023/03/13 08:00:15;;;;;;;7.45;4.30;;;12.00;99.90;;;;;;5137007;27;20100;-80
2023/03/13 08:02:41;;;;;;;10.85;5.50;;;11.90;99.90;;;;;;5155096;27;20050;-81
2023/03/13 08:05:07;;;;;;;5.03;3.10;;;11.90;99.90;;;;;;5155646;27;20055;-78
2023/03/13 08:07:32;;;;;;;7.10;3.83;;;11.90;99.90;;;;;;5155210;27;20050;-81
2023/03/13 08:09:58;;;;;;;4.40;3.05;;;11.90;99.90;;;;;;5155035;27;20052;-78
2023/03/13 08:12:24;;;;;;;3.80;2.65;;;11.90;99.90;;;;;;5155427;27;20532;-79
2023/03/13 08:14:49;;;;;;;7.00;2.67;;;11.90;99.90;;;;;;5136707;27;20043;-82
2023/03/13 08:17:15;;;;;;;8.05;3.10;;;11.90;99.90;;;;;;5154569;27;20039;-79
2023/03/13 08:19:41;;;;;;;2.60;2.35;;;11.90;99.90;;;;;;5119981;27;20047;-79
2023/03/13 08:22:06;;;;;;;5.13;3.03;;;11.90;99.90;;;;;;5136509;27;20360;-78
2023/03/13 08:24:32;;;;;;;5.32;2.35;;;11.90;99.90;;;;;;5119584;27;20100;-79
2023/03/13 08:26:57;;;;;;;3.38;1.85;;;11.90;99.90;;;;;;5154897;27;20480;-76
2023/03/13 08:29:23;;;;;;;3.35;1.98;;;11.90;99.90;;;;;;5154949;27;20507;-77
2023/03/13 08:31:51;;;;;;;5.32;2.45;;;12.00;99.90;;;;;;5154356;27;20057;-76
2023/03/13 08:34:17;;;;;;;8.75;2.00;;;12.10;99.90;;;;;;5155461;27;20089;-79
2023/03/13 08:36:43;;;;;;;1.42;1.30;;;12.10;99.90;;;;;;5138548;27;20062;-80
2023/03/13 08:39:17;;;;;;;3.38;1.75;;;12.30;99.90;;;;;;5158004;27;20042;-79
2023/03/13 08:41:44;;;;;;;1.70;1.50;;;12.40;99.90;;;;;;5137204;27;20697;-78
2023/03/13 08:44:12;;;;;;;3.22;1.42;;;12.50;99.90;;;;;;5155237;27;20043;-79
2023/03/13 08:46:38;;;;;;;1.75;1.60;;;12.80;99.90;;;;;;5155134;27;20038;-80
2023/03/13 08:49:06;;;;;;;4.25;1.80;;;12.80;99.90;;;;;;5155028;27;20047;-79
2023/03/13 08:51:32;;;;;;;4.70;2.10;;;12.80;99.90;;;;;;5154745;27;20038;-79
2023/03/13 08:53:59;;;;;;;2.17;1.52;;;12.80;99.90;;;;;;5154712;27;20416;-78
2023/03/13 08:56:29;;;;;;;3.65;1.33;;;12.90;99.90;;;;;;5136353;27;20111;-79
2023/03/13 08:58:59;;;;;;;3.60;1.77;;;12.80;99.90;;;;;;5154694;27;20065;-76
2023/03/13 09:01:28;;;;;;;1.70;1.60;;;12.80;99.90;;;;;;5154606;27;20055;-79
2023/03/13 09:03:54;;;;;;;5.10;2.15;;;13.00;99.90;;;;;;5154273;27;20043;-80
2023/03/13 09:06:20;;;;;;;1.88;1.67;;;13.70;99.90;;;;;;5154365;27;20510;-80
2023/03/13 09:08:46;;;;;;;2.72;1.67;;;14.30;99.90;;;;;;5102241;27;20081;-78
2023/03/13 09:11:14;;;;;;;4.93;1.67;;;15.10;99.90;;;;;;5154476;27;20090;-79
2023/03/13 09:13:43;;;;;;;1.60;1.27;;;14.70;99.90;;;;;;5135950;27;20070;-78
2023/03/13 09:16:11;;;;;;;3.03;1.63;;;14.30;99.90;;;;;;5154215;27;20047;-74
2023/03/13 09:18:37;;;;;;;3.22;1.70;;;13.80;99.90;;;;;;5154864;27;20182;-77
2023/03/13 09:21:07;;;;;;;2.63;1.58;;;13.60;99.90;;;;;;5154240;27;20050;-80
2023/03/13 09:23:33;;;;;;;5.43;1.52;;;13.40;99.90;;;;;;5154836;27;20038;-77
2023/03/13 09:25:59;;;;;;;3.88;1.88;;;13.30;99.90;;;;;;5154543;27;20048;-77
2023/03/13 09:28:25;;;;;;;3.17;1.63;;;13.20;99.90;;;;;;5154357;27;20042;-77
2023/03/13 09:30:51;;;;;;;3.53;1.98;;;13.20;99.90;;;;;;5154029;27;20044;-76
2023/03/13 09:33:18;;;;;;;3.70;1.85;;;13.20;99.90;;;;;;5154067;27;20046;-75
2023/03/13 09:35:49;;;;;;;5.20;2.25;;;13.20;99.90;;;;;;5136371;27;20428;-78
2023/03/13 09:38:16;;;;;;;3.50;1.85;;;13.10;99.90;;;;;;5154176;27;20051;-78
2023/03/13 09:40:48;;;;;;;2.25;1.80;;;13.00;99.90;;;;;;5154582;27;20047;-75
2023/03/13 09:43:25;;;;;;;4.85;2.20;;;13.00;99.90;;;;;;5153916;27;20038;-79
2023/03/13 09:45:55;;;;;;;5.88;2.90;;;13.00;99.90;;;;;;5157869;27;20043;-77
2023/03/13 09:48:33;;;;;;;4.13;2.45;;;12.90;99.90;;;;;;5123119;27;20100;-76
2023/03/13 09:51:15;;;;;;;2.10;1.42;;;13.10;99.90;;;;;;5158269;27;20136;-76
2023/03/13 09:53:55;;;;;;;3.17;2.30;;;13.20;99.90;;;;;;5158516;27;20483;-76
2023/03/13 09:56:32;;;;;;;5.75;1.90;;;13.40;99.90;;;;;;5157555;27;20043;-76
2023/03/13 09:59:21;;;;;;;7.30;2.50;;;13.60;99.90;;;;;;5157912;27;20054;-78
2023/03/13 10:01:49;;;;;;;4.43;2.30;;;13.60;99.90;;;;;;5158156;27;20050;-76
2023/03/13 10:04:41;;;;;;;5.43;2.30;;;13.60;99.90;;;;;;5157897;27;20053;-78
2023/03/13 10:07:10;;;;;;;10.87;2.87;;;13.60;99.90;;;;;;5157960;27;20047;-76
2023/03/13 10:09:36;;;;;;;3.83;2.08;;;13.80;99.90;;;;;;5157699;27;20458;-75
2023/03/13 10:12:09;;;;;;;3.40;2.35;;;13.90;99.90;;;;;;5158052;27;20130;-76
2023/03/13 10:14:43;;;;;;;5.57;2.08;;;14.30;99.90;;;;;;5157452;27;20051;-76
2023/03/13 10:17:21;;;;;;;6.40;2.53;;;14.70;99.90;;;;;;5157451;27;20038;-76
2023/03/13 10:19:55;;;;;;;6.03;2.30;;;14.60;99.90;;;;;;5157708;27;20086;-76
2023/03/13 10:22:25;;;;;;;4.55;2.53;;;14.50;99.90;;;;;;5157278;27;20077;-80
2023/03/13 10:24:54;;;;;;;4.55;2.63;;;14.60;99.90;;;;;;5157316;27;20085;-80
2023/03/13 10:27:20;;;;;;;6.38;3.13;;;14.60;99.90;;;;;;5157216;27;20077;-76
2023/03/13 10:29:46;;;;;;;4.78;2.60;;;14.40;99.90;;;;;;5157053;27;20046;-76
2023/03/13 10:32:15;;;;;;;5.05;2.47;;;14.50;99.90;;;;;;5157052;27;20061;-75
2023/03/13 10:35:00;;;;;;;5.13;2.42;;;14.70;99.90;;;;;;5156932;27;20050;-76
2023/03/13 10:37:38;;;;;;;7.80;2.20;;;14.70;99.90;;;;;;5156995;27;20057;-76
2023/03/13 10:40:24;;;;;;;7.43;2.40;;;14.70;99.90;;;;;;5157404;27;20082;-77
2023/03/13 10:43:01;;;;;;;7.60;2.40;;;14.50;99.90;;;;;;5138716;27;20095;-75
2023/03/13 10:45:32;;;;;;;6.10;2.47;;;14.50;99.90;;;;;;5156840;27;20455;-74
2023/03/13 10:48:14;;;;;;;5.32;2.60;;;14.50;99.90;;;;;;5156965;27;20038;-76
2023/03/13 10:50:46;;;;;;;10.13;2.47;;;14.50;99.90;;;;;;5157204;27;20054;-76
2023/03/13 10:53:31;;;;;;;11.77;2.72;;;14.60;99.90;;;;;;5156749;27;20034;-78
2023/03/13 10:56:16;;;;;;;4.90;2.63;;;14.60;99.90;;;;;;5156458;27;20042;-76
2023/03/13 10:58:48;;;;;;;6.57;2.53;;;14.70;99.90;;;;;;5156690;27;20061;-75
2023/03/13 11:01:30;;;;;;;11.47;2.87;;;14.70;99.90;;;;;;5157093;27;20073;-77
2023/03/13 11:03:59;;;;;;;8.77;3.45;;;14.70;99.90;;;;;;5138544;27;20066;-73
2023/03/13 11:06:31;;;;;;;14.07;3.13;;;14.70;99.90;;;;;;5156022;27;20504;-78
2023/03/13 11:09:13;;;;;;;9.88;3.03;;;14.70;99.90;;;;;;5138424;27;20039;-75
2023/03/13 11:11:53;;;;;;;6.03;2.88;;;14.60;99.90;;;;;;5156230;27;20054;-75
2023/03/13 11:14:21;;;;;;;5.95;2.97;;;14.60;99.90;;;;;;5156382;27;20043;-75
2023/03/13 11:16:53;;;;;;;5.50;2.67;;;14.60;99.90;;;;;;5156108;27;20043;-76
2023/03/13 11:19:33;;;;;;;9.30;2.70;;;14.60;99.90;;;;;;5156754;27;20079;-75
2023/03/13 11:22:27;;;;;;;10.32;3.15;;;14.60;99.90;;;;;;5156581;27;20043;-75
2023/03/13 11:25:02;;;;;;;;;;;14.60;99.90;;;;;;5138560;27;20046;-74
2023/03/13 11:27:46;;;;;;;7.72;2.42;;;14.60;99.90;;;;;;5156553;27;19942;-73
2023/03/13 11:30:42;;;;;;;4.53;2.53;;;14.70;99.90;;;;;;5155839;27;20471;-73
2023/03/13 11:33:28;;;;;;;8.10;2.65;;;14.70;99.90;;;;;;5156330;27;20141;-72
2023/03/13 11:36:19;;;;;;;7.93;2.95;;;14.70;99.90;;;;;;5156058;27;20073;-74
2023/03/13 11:38:58;;;;;;;6.10;2.03;;;14.80;99.90;;;;;;5155938;27;20042;-74
2023/03/13 11:41:48;;;;;;;8.30;2.13;;;14.90;99.90;;;;;;5137054;27;20059;-73
2023/03/13 11:44:30;;;;;;;7.20;2.60;;;14.90;99.90;;;;;;5155490;27;20069;-74
2023/03/13 11:47:34;;;;;;;5.75;2.13;;;14.90;99.90;;;;;;5156112;27;20043;-74
2023/03/13 11:50:24;;;;;;;9.02;2.83;;;15.00;99.90;;;;;;5126157;27;20058;-74
2023/03/13 11:52:59;;;;;;;6.13;2.53;;;15.10;99.90;;;;;;5137757;27;20440;-74
2023/03/13 11:55:36;;;;;;;3.20;1.95;;;15.10;99.90;;;;;;5155836;27;20064;-75
2023/03/13 11:58:42;;;;;;;11.00;2.47;;;15.10;99.90;;;;;;5155820;27;20046;-74
2023/03/13 12:01:16;;;;;;;4.20;1.70;;;15.20;99.90;;;;;;5055486;28;20487;-74
2023/03/13 12:03:54;;;;;;;5.82;1.65;;;15.40;99.90;;;;;;5127029;27;20047;-75
2023/03/13 12:06:57;;;;;;;3.65;1.63;;;15.40;99.90;;;;;;5155269;27;20153;-76
2023/03/13 12:09:36;;;;;;;2.70;1.52;;;15.30;99.90;;;;;;5155385;27;20042;-76
2023/03/13 12:12:43;;;;;;;9.18;2.35;;;15.40;99.90;;;;;;5155179;27;20523;-77
2023/03/13 12:15:17;;;;;;;7.15;1.77;;;15.40;99.90;;;;;;5126901;27;20054;-78
2023/03/13 12:17:52;;;;;;;13.77;2.13;;;15.40;99.90;;;;;;5155145;27;20049;-77
2023/03/13 12:20:31;;;;;;;6.82;2.17;;;15.40;99.90;;;;;;5155633;27;20054;-78
2023/03/13 12:23:21;;;;;;;6.32;2.28;;;15.40;99.90;;;;;;5155518;27;20046;-78
2023/03/13 12:26:02;;;;;;;5.13;1.80;;;15.50;99.90;;;;;;5155446;27;20053;-80
2023/03/13 12:28:34;;;;;;;4.30;1.67;;;15.60;99.90;;;;;;5155056;27;20042;-77
2023/03/13 12:31:18;;;;;;;9.70;2.38;;;15.70;99.90;;;;;;5155383;27;20051;-78
2023/03/13 12:34:05;;;;;;;4.13;1.80;;;15.70;99.90;;;;;;5136921;27;20059;-79
2023/03/13 12:37:00;;;;;;;7.45;2.03;;;15.70;99.90;;;;;;5155376;27;20043;-78
2023/03/13 12:39:31;;;;;;;4.03;1.50;;;15.80;99.90;;;;;;5154848;27;20043;-78
2023/03/13 12:42:19;;;;;;;8.00;2.83;;;15.70;99.90;;;;;;5154752;27;20496;-80
2023/03/13 12:44:45;;;;;;;5.90;2.70;;;15.80;99.90;;;;;;5136699;27;20038;-76
2023/03/13 12:47:39;;;;;;;4.68;2.40;;;15.80;99.90;;;;;;5154564;27;20093;-79
2023/03/13 12:50:37;;;;;;;3.67;2.10;;;15.70;99.90;;;;;;5154165;27;20398;-79
2023/03/13 12:53:45;;;;;;;9.60;2.90;;;15.70;99.90;;;;;;5154886;27;20043;-82
2023/03/13 12:56:26;;;;;;;4.82;2.10;;;15.60;99.90;;;;;;5154517;27;20087;-75
2023/03/13 12:59:05;;;;;;;8.15;2.28;;;15.60;99.90;;;;;;5154454;27;20097;-77
2023/03/13 13:01:50;;;;;;;4.82;2.70;;;15.50;99.90;;;;;;5154623;27;20066;-75
2023/03/13 13:04:23;;;;;;;7.43;3.65;;;15.30;99.90;;;;;;5154632;27;20057;-77
2023/03/13 13:06:52;;;;;;;;;;;15.30;99.90;;;;;;5154777;27;20034;-77